Time;durP1;ratioP1;P1;durP2;ratioP2;P2;SDS_P1;SDS_P2;PMS_P1;PMS_P2;Temp;Humidity;BMP_temperature;BMP_pressure;BME280_temperature;BME280_humidity;BME280_pressure;Samples;Min_cycle;Max_cycle;Signal;HPM_P1;HPM_P2
2023/01/28 00:01:06;;;;;;;62.40;32.80;;;;;;;0.29;85.12;101276.73;214516;1264;68023;-74
2023/01/28 00:06:07;;;;;;;56.90;31.60;;;;;;;0.25;84.93;101285.69;214325;1267;64144;-74
2023/01/28 00:11:02;;;;;;;61.30;31.80;;;;;;;0.22;85.25;101284.65;214397;1264;76141;-73
2023/01/28 00:16:04;;;;;;;64.60;33.10;;;;;;;0.21;85.19;101285.41;214517;1264;72557;-74
2023/01/28 00:20:58;;;;;;;62.90;34.10;;;;;;;0.19;85.03;101287.33;214501;1264;61797;-73
2023/01/28 00:25:51;;;;;;;57.20;29.50;;;;;;;0.18;85.19;101292.02;214477;1264;67903;-74
2023/01/28 00:30:44;;;;;;;65.20;33.40;;;;;;;0.17;85.24;101288.05;214542;1264;61293;-73
2023/01/28 00:35:37;;;;;;;55.60;31.40;;;;;;;0.16;84.90;101287.61;214562;1263;61252;-73
2023/01/28 00:40:31;;;;;;;56.60;29.50;;;;;;;0.14;85.47;101287.83;214544;1263;72826;-74
2023/01/28 00:45:24;;;;;;;41.80;24.80;;;;;;;0.13;85.18;101287.56;214575;1265;61292;-74
2023/01/28 00:50:17;;;;;;;53.00;27.10;;;;;;;0.11;85.32;101286.13;214544;1264;61282;-74
2023/01/28 00:55:10;;;;;;;55.60;29.10;;;;;;;0.13;85.58;101288.10;214417;1264;61232;-73
2023/01/28 01:00:05;;;;;;;49.60;26.90;;;;;;;0.14;85.54;101290.02;214554;1264;73113;-73
2023/01/28 01:04:58;;;;;;;56.10;28.80;;;;;;;0.14;85.34;101288.52;214482;1263;73445;-73
2023/01/28 01:09:51;;;;;;;48.70;25.90;;;;;;;0.14;85.54;101288.70;214533;1265;61276;-73
2023/01/28 01:14:44;;;;;;;51.40;28.90;;;;;;;0.15;85.57;101288.94;214492;1264;61394;-73
2023/01/28 01:19:37;;;;;;;48.80;27.20;;;;;;;0.16;85.46;101289.30;214466;1264;61274;-72
2023/01/28 01:24:33;;;;;;;53.60;27.70;;;;;;;0.18;85.64;101285.70;214705;1264;74709;-73
2023/01/28 01:29:26;;;;;;;48.80;27.90;;;;;;;0.18;85.34;101289.02;214527;1263;72595;-73
2023/01/28 01:34:19;;;;;;;48.90;25.90;;;;;;;0.20;85.67;101285.00;214567;1263;61281;-72
2023/01/28 01:39:13;;;;;;;47.00;25.50;;;;;;;0.23;85.57;101285.18;214560;1264;65836;-72
2023/01/28 01:44:07;;;;;;;53.00;27.00;;;;;;;0.25;85.77;101282.42;214526;1264;61242;-72
2023/01/28 01:49:25;;;;;;;48.90;26.40;;;;;;;0.26;85.61;101280.95;214510;1264;74327;-73
2023/01/28 01:54:20;;;;;;;51.00;25.70;;;;;;;0.25;85.43;101282.95;214564;1265;73717;-73
2023/01/28 01:59:22;;;;;;;47.10;25.80;;;;;;;0.23;85.54;101288.98;214505;1267;61392;-72
2023/01/28 02:04:32;;;;;;;48.60;25.80;;;;;;;0.25;85.82;101285.20;214534;1264;67062;-72
2023/01/28 02:09:31;;;;;;;45.50;24.90;;;;;;;0.27;85.82;101286.50;214545;1264;61355;-72
2023/01/28 02:14:28;;;;;;;46.20;26.20;;;;;;;0.28;85.75;101282.82;214552;1264;74377;-72
2023/01/28 02:19:27;;;;;;;43.20;24.10;;;;;;;0.28;85.80;101285.20;214546;1264;72505;-73
2023/01/28 02:24:47;;;;;;;40.90;24.10;;;;;;;0.27;85.69;101287.05;214601;1264;61341;-73
2023/01/28 02:29:50;;;;;;;41.80;24.80;;;;;;;0.25;85.64;101286.38;214565;1264;68127;-72
2023/01/28 02:34:58;;;;;;;44.60;24.80;;;;;;;0.23;85.69;101286.06;214523;1264;61474;-73
2023/01/28 02:40:20;;;;;;;47.80;25.50;;;;;;;0.23;85.85;101284.69;214587;1264;73591;-72
2023/01/28 02:47:56;;;;;;;45.40;24.50;;;;;;;0.25;85.91;101288.23;214500;1265;71771;-73
2023/01/28 02:51:10;;;;;;;44.80;23.20;;;;;;;0.26;85.97;101288.80;214541;1265;61302;-72
2023/01/28 02:56:14;;;;;;;41.40;24.70;;;;;;;0.26;86.25;101293.60;214615;1263;65921;-73
2023/01/28 03:01:26;;;;;;;47.60;25.70;;;;;;;0.28;86.25;101292.19;214475;1264;61292;-72
2023/01/28 03:06:24;;;;;;;45.90;23.90;;;;;;;0.29;86.39;101293.63;214572;1267;74578;-72
2023/01/28 03:37:42;;;;;;;43.40;24.10;;;;;;;0.30;86.57;101289.45;214579;1264;71560;-74
2023/01/28 03:42:48;;;;;;;43.90;23.40;;;;;;;0.31;86.68;101288.98;214619;1264;61267;-73
2023/01/28 03:47:55;;;;;;;43.30;23.40;;;;;;;0.31;86.86;101290.19;214543;1265;67464;-73
2023/01/28 03:52:48;;;;;;;42.30;23.10;;;;;;;0.31;86.59;101286.45;214490;1264;61316;-74
2023/01/28 03:57:48;;;;;;;41.10;23.20;;;;;;;0.31;86.80;101286.30;214570;1265;75544;-73
2023/01/28 04:02:42;;;;;;;41.80;22.50;;;;;;;0.31;86.69;101285.44;214569;1264;70523;-74
2023/01/28 04:07:39;;;;;;;42.80;22.00;;;;;;;0.32;86.81;101282.42;214571;1264;61870;-73
2023/01/28 04:12:53;;;;;;;41.80;23.50;;;;;;;0.32;86.69;101283.61;214502;1264;65780;-74
2023/01/28 04:17:48;;;;;;;36.40;21.40;;;;;;;0.31;86.72;101282.00;214455;1263;173807;-73
2023/01/28 04:22:49;;;;;;;34.40;21.00;;;;;;;0.31;86.73;101286.12;214567;1264;72727;-73
2023/01/28 04:27:44;;;;;;;43.70;23.70;;;;;;;0.32;86.78;101286.18;214587;1264;74516;-73
2023/01/28 04:32:42;;;;;;;38.70;21.20;;;;;;;0.32;86.77;101290.25;214562;1265;61262;-73
2023/01/28 04:38:01;;;;;;;36.40;21.60;;;;;;;0.31;87.01;101289.16;214468;1265;65713;-73
2023/01/28 04:42:59;;;;;;;35.30;20.90;;;;;;;0.31;86.81;101290.31;214552;1264;61303;-73
2023/01/28 04:48:15;;;;;;;29.80;18.50;;;;;;;0.31;86.70;101289.98;214366;1264;73362;-73
2023/01/28 04:53:29;;;;;;;36.20;21.10;;;;;;;0.29;86.58;101293.48;214469;1264;71514;-73
2023/01/28 04:58:24;;;;;;;36.90;21.50;;;;;;;0.29;86.90;101289.89;214591;1264;61265;-73
2023/01/28 05:03:20;;;;;;;32.60;19.80;;;;;;;0.30;87.03;101288.57;214511;1265;65835;-73
2023/01/28 05:08:13;;;;;;;31.50;18.10;;;;;;;0.28;86.87;101296.10;214572;1264;61354;-73
2023/01/28 05:13:09;;;;;;;34.30;19.10;;;;;;;0.27;86.60;101297.36;214671;1262;61239;-73
2023/01/28 05:18:02;;;;;;;30.80;18.80;;;;;;;0.26;86.78;101300.73;214574;1264;71279;-74
2023/01/28 05:23:01;;;;;;;30.00;17.20;;;;;;;0.25;86.86;101300.70;214623;1265;61391;-73
2023/01/28 05:28:05;;;;;;;28.80;18.30;;;;;;;0.25;86.89;101306.61;214639;1264;65931;-73
2023/01/28 05:32:58;;;;;;;29.80;16.70;;;;;;;0.25;86.95;101306.49;214519;1264;61342;-74
2023/01/28 05:37:51;;;;;;;23.10;16.30;;;;;;;0.25;86.85;101305.45;214570;1263;61306;-73
2023/01/28 05:42:44;;;;;;;26.10;16.50;;;;;;;0.25;86.67;101310.91;214622;1264;70643;-73
2023/01/28 05:47:53;;;;;;;26.60;16.70;;;;;;;0.24;86.87;101308.48;214521;1265;61368;-74
2023/01/28 05:53:00;;;;;;;27.20;16.90;;;;;;;0.24;86.87;101311.20;214526;1265;66938;-73
2023/01/28 05:57:57;;;;;;;25.00;16.10;;;;;;;0.24;87.07;101313.23;214587;1267;61391;-73
2023/01/28 06:02:52;;;;;;;26.90;16.60;;;;;;;0.23;86.93;101317.27;214576;1264;74115;-74
2023/01/28 06:07:46;;;;;;;27.30;16.70;;;;;;;0.22;86.86;101317.54;214558;1265;72674;-73
2023/01/28 06:12:40;;;;;;;25.00;17.40;;;;;;;0.23;86.93;101322.17;214580;1264;61118;-73
2023/01/28 06:17:53;;;;;;;28.90;18.40;;;;;;;0.23;86.91;101328.37;214508;1265;65707;-73
2023/01/28 06:22:52;;;;;;;24.80;15.40;;;;;;;0.23;86.92;101333.13;214557;1264;61279;-74
2023/01/28 06:27:45;;;;;;;31.70;17.70;;;;;;;0.24;86.90;101332.52;214564;1265;73855;-73
2023/01/28 06:32:38;;;;;;;28.60;18.00;;;;;;;0.25;86.99;101335.64;214548;1265;61277;-73
2023/01/28 06:37:33;;;;;;;30.30;17.80;;;;;;;0.27;86.90;101340.85;214609;1263;61505;-74
2023/01/28 06:42:25;;;;;;;29.60;17.30;;;;;;;0.28;87.17;101346.25;214542;1265;61271;-73
2023/01/28 06:47:19;;;;;;;31.20;18.80;;;;;;;0.29;86.85;101345.95;214578;1264;61249;-73
2023/01/28 06:52:12;;;;;;;31.40;17.40;;;;;;;0.28;86.82;101352.59;214617;1265;61403;-73
2023/01/28 06:57:05;;;;;;;29.40;16.80;;;;;;;0.29;86.99;101356.20;214587;1265;61290;-74
2023/01/28 07:01:58;;;;;;;31.80;17.30;;;;;;;0.30;87.06;101352.52;214680;1267;61226;-73
2023/01/28 07:06:51;;;;;;;28.60;16.90;;;;;;;0.31;87.21;101360.11;214580;1266;61289;-74
2023/01/28 07:11:43;;;;;;;24.40;15.70;;;;;;;0.32;87.31;101364.13;214525;1265;61295;-74
2023/01/28 07:16:36;;;;;;;31.20;16.00;;;;;;;0.35;87.21;101368.25;214589;1265;61297;-73
2023/01/28 07:21:29;;;;;;;25.50;15.80;;;;;;;0.36;87.14;101369.84;214543;1265;61246;-73
2023/01/28 07:26:22;;;;;;;29.40;16.20;;;;;;;0.38;87.13;101364.86;214560;1265;61258;-73
2023/01/28 07:31:15;;;;;;;34.00;18.80;;;;;;;0.41;87.14;101366.38;214571;1265;61262;-73
2023/01/28 07:36:09;;;;;;;30.30;17.10;;;;;;;0.42;87.22;101368.52;214529;1264;61235;-73
2023/01/28 07:41:02;;;;;;;31.20;17.30;;;;;;;0.44;87.07;101366.71;214611;1264;75309;-73
2023/01/28 07:45:55;;;;;;;43.20;22.40;;;;;;;0.46;87.06;101380.16;214590;1265;61279;-73
2023/01/28 07:50:50;;;;;;;43.50;22.60;;;;;;;0.46;87.37;101377.52;214516;1262;61907;-73
2023/01/28 07:55:43;;;;;;;33.50;17.70;;;;;;;0.49;86.93;101379.55;214551;1267;65987;-73
2023/01/28 08:00:37;;;;;;;34.60;19.60;;;;;;;0.48;87.34;101377.98;214562;1262;61420;-74
2023/01/28 08:05:44;;;;;;;27.20;16.60;;;;;;;0.50;87.10;101379.27;214598;1265;75607;-73
2023/01/28 08:10:37;;;;;;;35.30;18.60;;;;;;;0.51;87.01;101375.27;214549;1265;72195;-73
2023/01/28 08:15:30;;;;;;;35.00;19.60;;;;;;;0.53;87.04;101375.36;214608;1264;61284;-73
2023/01/28 08:20:28;;;;;;;38.10;18.80;;;;;;;0.55;87.14;101383.02;214599;1265;66920;-73
2023/01/28 08:25:21;;;;;;;32.00;18.40;;;;;;;0.56;86.96;101379.84;214582;1264;61331;-74
2023/01/28 08:30:14;;;;;;;30.70;17.60;;;;;;;0.58;87.05;101378.78;214583;1264;61291;-74
2023/01/28 08:35:08;;;;;;;32.60;17.30;;;;;;;0.59;87.19;101380.53;214481;1264;71058;-73
2023/01/28 08:40:01;;;;;;;28.70;16.40;;;;;;;0.59;86.97;101379.02;214585;1264;61252;-73
2023/01/28 08:44:54;;;;;;;24.10;14.00;;;;;;;0.58;87.05;101378.33;214516;1265;67044;-74
2023/01/28 08:49:47;;;;;;;29.20;17.60;;;;;;;0.59;87.01;101378.20;214492;1264;61274;-73
2023/01/28 08:54:40;;;;;;;35.30;20.00;;;;;;;0.60;87.11;101380.27;214546;1267;61278;-74
2023/01/28 08:59:33;;;;;;;24.90;16.30;;;;;;;0.62;87.06;101380.77;214528;1262;61229;-74
2023/01/28 09:04:26;;;;;;;29.00;16.00;;;;;;;0.63;87.24;101379.66;214401;1265;61312;-74
2023/01/28 09:09:19;;;;;;;28.20;16.10;;;;;;;0.64;87.11;101387.10;214181;1265;67851;-74
2023/01/28 09:14:12;;;;;;;28.40;14.50;;;;;;;0.67;86.94;101386.93;214427;1264;61247;-74
2023/01/28 09:19:05;;;;;;;24.50;14.70;;;;;;;0.71;87.06;101391.48;214510;1264;74188;-75
2023/01/28 09:23:58;;;;;;;34.90;19.00;;;;;;;0.75;86.99;101399.79;214469;1266;72488;-74
2023/01/28 09:28:51;;;;;;;28.00;15.50;;;;;;;0.75;86.93;101405.09;214575;1267;61270;-74
2023/01/28 09:33:44;;;;;;;25.30;15.30;;;;;;;0.76;86.97;101409.02;214600;1268;61338;-74
2023/01/28 09:38:37;;;;;;;31.10;17.50;;;;;;;0.77;86.94;101413.52;214499;1268;61328;-74
2023/01/28 09:43:34;;;;;;;29.00;16.70;;;;;;;0.80;87.17;101413.02;214569;1267;72981;-74
2023/01/28 09:48:38;;;;;;;25.70;16.10;;;;;;;0.82;86.88;101410.11;214390;1265;74049;-73
2023/01/28 09:53:33;;;;;;;29.80;17.00;;;;;;;0.83;86.76;101405.56;214538;1264;61396;-73
2023/01/28 09:58:26;;;;;;;27.10;16.00;;;;;;;0.81;86.85;101405.11;214455;1267;66814;-74
2023/01/28 10:03:53;;;;;;;29.80;18.10;;;;;;;0.82;87.26;101403.14;214463;1268;61273;-74
2023/01/28 10:09:21;;;;;;;29.60;17.90;;;;;;;0.82;87.13;101397.45;214558;1266;74485;-73
2023/01/28 10:14:31;;;;;;;36.90;21.10;;;;;;;0.80;87.36;101388.63;214509;1266;71411;-74
2023/01/28 10:19:30;;;;;;;28.70;19.30;;;;;;;0.78;87.05;101385.95;214589;1266;61342;-74
2023/01/28 10:24:29;;;;;;;27.90;16.60;;;;;;;0.78;87.15;101384.08;214515;1267;66800;-74
2023/01/28 10:29:28;;;;;;;26.00;16.40;;;;;;;0.81;87.33;101381.70;214493;1267;61322;-74
2023/01/28 10:34:22;;;;;;;30.20;17.70;;;;;;;0.84;87.05;101384.45;214477;1266;73588;-75
2023/01/28 10:39:17;;;;;;;29.20;19.20;;;;;;;0.87;87.03;101380.54;214494;1264;73431;-75
2023/01/28 10:44:39;;;;;;;32.00;19.80;;;;;;;0.91;86.89;101387.48;214602;1264;61360;-76
2023/01/28 10:49:40;;;;;;;30.70;17.90;;;;;;;0.93;87.06;101379.59;213793;1271;68228;-74
2023/01/28 10:54:33;;;;;;;19.90;14.30;;;;;;;0.95;87.06;101380.77;213933;1270;61564;-75
2023/01/28 10:59:31;;;;;;;27.60;18.80;;;;;;;0.96;86.88;101371.96;213737;1270;61648;-75
2023/01/28 11:04:26;;;;;;;24.40;15.80;;;;;;;1.00;87.03;101373.73;213746;1270;73028;-75
2023/01/28 11:09:25;;;;;;;23.30;16.10;;;;;;;1.01;86.74;101370.59;213547;1272;61392;-75
2023/01/28 11:14:23;;;;;;;26.20;18.60;;;;;;;1.03;86.48;101368.34;213660;1274;67034;-75
2023/01/28 11:19:20;;;;;;;27.50;17.80;;;;;;;1.07;86.52;101357.80;213794;1273;61323;-75
2023/01/28 11:24:16;;;;;;;23.60;16.40;;;;;;;1.08;86.79;101355.03;213829;1268;75630;-76
2023/01/28 11:29:32;;;;;;;22.90;15.60;;;;;;;1.05;86.64;101351.71;214381;1265;72200;-75
2023/01/28 11:34:28;;;;;;;22.00;15.70;;;;;;;1.03;86.79;101353.13;214278;1266;61864;-75
2023/01/28 11:39:26;;;;;;;17.60;13.90;;;;;;;1.03;86.52;101355.98;214321;1267;65555;-75
2023/01/28 11:44:25;;;;;;;20.20;15.20;;;;;;;0.96;86.57;101351.81;214305;1264;62150;-75
2023/01/28 11:49:45;;;;;;;20.00;14.00;;;;;;;0.91;86.58;101348.61;214336;1264;74548;-75
2023/01/28 11:55:16;;;;;;;22.00;15.50;;;;;;;0.88;86.82;101346.33;214310;1268;71530;-76
2023/01/28 12:00:38;;;;;;;23.30;16.20;;;;;;;0.84;86.76;101344.48;214375;1267;61412;-76
2023/01/28 12:05:40;;;;;;;26.60;17.70;;;;;;;0.83;87.01;101347.50;214442;1264;68198;-75
2023/01/28 12:10:55;;;;;;;22.40;15.30;;;;;;;0.82;87.14;101344.21;214500;1264;61401;-75
2023/01/28 12:16:03;;;;;;;25.90;18.70;;;;;;;0.81;86.91;101337.48;214452;1267;72288;-75
2023/01/28 12:21:05;;;;;;;26.80;19.10;;;;;;;0.76;86.59;101339.38;214438;1267;73302;-75
2023/01/28 12:26:05;;;;;;;124.80;85.50;;;;;;;0.70;86.91;101336.94;214481;1262;61742;-75
2023/01/28 12:30:58;;;;;;;233.00;150.00;;;;;;;0.67;86.91;101334.40;214427;1264;66897;-75
2023/01/28 12:36:26;;;;;;;85.30;52.70;;;;;;;0.67;87.05;101337.64;214429;1264;61942;-76
2023/01/28 12:41:25;;;;;;;;;;;;;;;0.66;87.06;101335.67;214524;1268;74028;-75
2023/01/28 12:46:30;;;;;;;37.30;25.60;;;;;;;0.66;86.95;101335.02;214502;1264;73428;-75
2023/01/28 12:51:28;;;;;;;140.40;95.10;;;;;;;0.67;86.95;101332.80;214530;1264;61381;-75
2023/01/28 12:56:44;;;;;;;65.80;40.00;;;;;;;0.67;87.02;101336.75;214480;1263;65769;-76
2023/01/28 13:01:44;;;;;;;29.50;22.10;;;;;;;0.68;87.21;101339.38;214526;1264;61964;-75
2023/01/28 13:06:46;;;;;;;20.80;13.90;;;;;;;0.66;86.90;101343.54;214495;1267;73318;-76
2023/01/28 13:11:40;;;;;;;21.30;15.70;;;;;;;0.66;87.24;101346.04;214295;1264;71429;-76
2023/01/28 13:16:33;;;;;;;18.80;14.90;;;;;;;0.66;87.08;101340.42;214553;1267;61270;-75
2023/01/28 13:21:34;;;;;;;30.90;20.30;;;;;;;0.68;87.25;101339.02;214459;1264;68284;-75
2023/01/28 13:26:58;;;;;;;29.60;21.00;;;;;;;0.67;86.97;101336.45;214435;1266;64828;-76
2023/01/28 13:31:55;;;;;;;24.60;18.60;;;;;;;0.69;87.16;101339.81;214495;1264;74638;-76
2023/01/28 13:36:49;;;;;;;26.20;19.30;;;;;;;0.67;87.06;101345.13;214528;1267;71345;-76
2023/01/28 13:41:45;;;;;;;25.00;17.50;;;;;;;0.67;87.21;101344.77;214501;1264;61276;-76
2023/01/28 13:46:38;;;;;;;23.10;15.50;;;;;;;0.65;86.96;101346.34;214474;1264;65777;-76
2023/01/28 13:51:37;;;;;;;24.00;18.90;;;;;;;0.63;87.16;101348.39;214348;1263;61820;-76
2023/01/28 13:56:55;;;;;;;27.80;18.60;;;;;;;0.62;87.05;101348.37;214446;1267;74554;-76
2023/01/28 14:02:20;;;;;;;36.80;29.80;;;;;;;0.60;87.32;101349.59;214443;1267;72513;-76
2023/01/28 14:07:42;;;;;;;28.10;18.90;;;;;;;0.58;87.08;101348.30;214501;1262;61350;-76
2023/01/28 14:12:58;;;;;;;42.60;26.50;;;;;;;0.56;87.35;101348.31;214445;1267;67335;-76
2023/01/28 14:17:54;;;;;;;29.60;19.50;;;;;;;0.54;87.30;101345.42;214516;1264;61376;-76
2023/01/28 14:22:49;;;;;;;29.10;19.00;;;;;;;0.51;87.07;101345.41;214555;1267;73423;-76
2023/01/28 14:27:47;;;;;;;24.00;17.80;;;;;;;0.51;87.46;101347.14;214439;1264;73254;-74
2023/01/28 14:32:47;;;;;;;24.50;17.40;;;;;;;0.51;87.55;101344.20;214416;1263;61376;-76
2023/01/28 14:37:41;;;;;;;29.30;20.40;;;;;;;0.51;87.34;101347.08;214459;1264;67285;-75
2023/01/28 14:42:40;;;;;;;35.20;22.20;;;;;;;0.50;87.46;101344.48;214475;1264;61346;-75
2023/01/28 14:47:45;;;;;;;41.20;27.00;;;;;;;0.47;87.45;101348.35;214530;1264;73102;-75
2023/01/28 14:53:14;;;;;;;52.00;34.00;;;;;;;0.44;87.16;101353.64;214245;1264;71131;-75
2023/01/28 14:58:14;;;;;;;;;;;;;;;0.41;87.27;101356.84;214352;1264;61366;-75
2023/01/28 15:03:19;;;;;;;58.20;39.50;;;;;;;0.37;87.35;101354.21;214357;1264;65298;-75
2023/01/28 15:08:23;;;;;;;65.30;41.60;;;;;;;0.36;87.52;101353.61;214346;1264;61262;-75
2023/01/28 15:13:26;;;;;;;44.80;32.00;;;;;;;0.34;87.40;101350.59;214309;1267;75325;-75
2023/01/28 15:18:25;;;;;;;47.70;32.00;;;;;;;0.32;87.51;101357.95;214314;1263;72550;-75
2023/01/28 15:23:47;;;;;;;35.70;22.90;;;;;;;0.31;87.39;101359.39;214396;1264;61267;-75
2023/01/28 15:28:43;;;;;;;48.00;26.80;;;;;;;0.28;87.47;101360.42;214132;1263;67010;-75
2023/01/28 15:33:36;;;;;;;44.40;27.10;;;;;;;0.27;87.45;101369.41;214243;1263;61378;-76
2023/01/28 15:38:29;;;;;;;39.50;23.80;;;;;;;0.26;87.46;101371.37;214255;1263;74708;-75
2023/01/28 15:43:28;;;;;;;41.40;27.10;;;;;;;0.27;87.80;101372.98;214219;1263;73896;-76
2023/01/28 15:48:23;;;;;;;35.00;23.30;;;;;;;0.29;87.61;101374.80;214092;1263;61304;-76
2023/01/28 15:53:16;;;;;;;27.70;20.20;;;;;;;0.28;87.44;101377.63;214343;1263;68144;-74
2023/01/28 15:58:30;;;;;;;22.40;15.70;;;;;;;0.27;87.34;101383.22;214278;1263;61414;-74
2023/01/28 16:03:23;;;;;;;23.40;15.60;;;;;;;0.27;86.95;101381.29;214286;1264;74355;-74
2023/01/28 16:08:34;;;;;;;29.30;19.50;;;;;;;0.28;87.04;101377.27;214113;1263;72575;-74
2023/01/28 16:13:43;;;;;;;39.80;27.40;;;;;;;0.27;86.93;101380.83;214138;1264;61561;-72
2023/01/28 16:18:49;;;;;;;25.90;16.50;;;;;;;0.25;86.98;101385.96;214147;1264;157158;-72
2023/01/28 16:23:51;;;;;;;27.80;19.00;;;;;;;0.24;87.02;101392.36;214412;1264;61217;-72
2023/01/28 16:28:46;;;;;;;28.00;17.00;;;;;;;0.22;86.59;101391.16;214353;1264;74978;-72
2023/01/28 16:33:39;;;;;;;41.90;25.60;;;;;;;0.21;86.71;101391.45;214296;1263;73362;-72
2023/01/28 16:38:32;;;;;;;23.60;15.20;;;;;;;0.21;86.77;101391.44;214210;1263;61237;-72
2023/01/28 16:43:25;;;;;;;25.60;17.10;;;;;;;0.19;86.49;101389.95;214100;1264;67010;-72
2023/01/28 16:48:21;;;;;;;44.50;28.70;;;;;;;0.17;86.57;101390.02;214286;1263;61408;-72
2023/01/28 16:53:32;;;;;;;20.40;13.80;;;;;;;0.18;86.39;101395.88;214334;1266;74006;-73
2023/01/28 16:58:27;;;;;;;20.30;13.90;;;;;;;0.19;86.63;101396.80;214048;1264;72650;-73
2023/01/28 17:03:19;;;;;;;31.80;24.90;;;;;;;0.18;86.54;101396.19;214139;1264;61389;-72
2023/01/28 17:08:13;;;;;;;32.30;23.10;;;;;;;0.18;86.43;101399.10;214162;1267;61338;-73
2023/01/28 17:13:07;;;;;;;22.90;16.40;;;;;;;0.18;86.58;101397.75;214443;1264;61388;-73
2023/01/28 17:18:02;;;;;;;19.10;14.10;;;;;;;0.20;86.76;101394.31;214392;1264;74708;-74
2023/01/28 17:22:58;;;;;;;17.50;12.60;;;;;;;0.21;86.40;101400.15;214490;1263;73553;-74
2023/01/28 17:27:51;;;;;;;19.50;13.20;;;;;;;0.20;86.48;101397.69;214471;1263;61336;-75
2023/01/28 17:32:46;;;;;;;30.40;23.30;;;;;;;0.18;86.43;101401.13;214305;1263;68047;-75
2023/01/28 17:37:38;;;;;;;22.80;15.00;;;;;;;0.16;86.23;101402.88;214416;1264;61364;-75
2023/01/28 17:42:31;;;;;;;22.20;14.90;;;;;;;0.15;86.22;101405.89;214347;1264;61247;-75
2023/01/28 17:47:24;;;;;;;20.00;14.60;;;;;;;0.14;86.41;101409.04;214401;1267;61369;-74
2023/01/28 17:52:17;;;;;;;27.00;18.30;;;;;;;0.13;85.92;101407.98;214446;1263;61260;-74
2023/01/28 17:57:10;;;;;;;26.70;15.50;;;;;;;0.11;85.71;101410.02;214386;1264;61344;-74
2023/01/28 18:02:04;;;;;;;17.90;11.00;;;;;;;0.09;85.43;101408.73;214470;1264;61269;-74
2023/01/28 18:06:57;;;;;;;15.50;11.50;;;;;;;0.09;85.27;101415.33;214362;1264;73966;-75
2023/01/28 18:11:50;;;;;;;18.00;10.30;;;;;;;0.07;84.45;101422.17;214277;1264;61393;-75
2023/01/28 18:16:43;;;;;;;27.10;15.70;;;;;;;0.04;84.41;101418.91;214509;1262;61260;-75
2023/01/28 18:21:40;;;;;;;15.30;8.80;;;;;;;0.03;84.18;101417.30;214490;1262;61296;-75
2023/01/28 18:26:49;;;;;;;14.50;9.30;;;;;;;0.04;84.53;101426.40;214397;1264;61285;-75
2023/01/28 18:31:42;;;;;;;42.10;21.40;;;;;;;-0.00;84.31;101425.10;214484;1264;74329;-74
2023/01/28 18:36:35;;;;;;;23.80;13.50;;;;;;;0.01;84.43;101433.34;214109;1264;73626;-75
2023/01/28 18:41:28;;;;;;;20.30;13.40;;;;;;;0.01;84.34;101443.58;214286;1262;61166;-75
2023/01/28 18:46:21;;;;;;;23.30;14.70;;;;;;;0.01;84.37;101446.83;214075;1264;61279;-75
2023/01/28 18:51:14;;;;;;;21.00;14.50;;;;;;;0.01;84.32;101435.89;214051;1267;61725;-76
2023/01/28 18:56:21;;;;;;;18.10;11.30;;;;;;;0.01;84.64;101440.52;213884;1262;76233;-75
2023/01/28 19:01:14;;;;;;;18.10;13.00;;;;;;;0.00;84.22;101436.70;214091;1265;61266;-75
2023/01/28 19:06:09;;;;;;;23.00;14.40;;;;;;;-0.02;84.07;101433.66;214150;1266;67759;-75
2023/01/28 19:11:02;;;;;;;14.90;9.20;;;;;;;-0.01;84.61;101433.91;214340;1263;67986;-75
2023/01/28 19:15:56;;;;;;;12.70;8.80;;;;;;;-0.04;84.48;101438.84;214250;1264;61398;-75
2023/01/28 19:20:49;;;;;;;13.60;8.60;;;;;;;-0.08;84.20;101432.80;214250;1264;75407;-76
2023/01/28 19:25:42;;;;;;;16.40;9.20;;;;;;;-0.10;84.23;101434.63;214210;1262;73718;-75
2023/01/28 19:30:36;;;;;;;11.90;8.80;;;;;;;-0.12;83.91;101430.91;214271;1263;61263;-75
2023/01/28 19:35:29;;;;;;;13.30;8.80;;;;;;;-0.10;84.47;101439.94;214205;1263;65657;-74
2023/01/28 19:40:22;;;;;;;8.10;5.60;;;;;;;-0.07;84.27;101445.44;214302;1262;61239;-75
2023/01/28 19:45:15;;;;;;;6.20;4.20;;;;;;;-0.06;84.45;101442.93;214397;1264;75653;-75
2023/01/28 19:50:10;;;;;;;7.80;6.20;;;;;;;-0.07;84.04;101445.92;214375;1262;72951;-75
2023/01/28 19:55:04;;;;;;;8.30;6.50;;;;;;;-0.08;84.07;101454.71;214354;1264;61228;-74
2023/01/28 19:59:57;;;;;;;6.50;5.60;;;;;;;-0.10;84.10;101447.79;214315;1267;67188;-75
2023/01/28 20:04:50;;;;;;;10.60;7.50;;;;;;;-0.12;84.02;101445.04;214310;1264;61315;-75
2023/01/28 20:09:52;;;;;;;9.30;6.70;;;;;;;-0.16;83.93;101453.80;214336;1264;74437;-73
2023/01/28 20:14:46;;;;;;;11.40;7.00;;;;;;;-0.17;84.35;101461.58;214344;1264;61816;-73
2023/01/28 20:19:39;;;;;;;9.30;6.70;;;;;;;-0.17;84.28;101464.42;214303;1264;61304;-73
2023/01/28 20:24:32;;;;;;;8.60;6.70;;;;;;;-0.21;84.17;101455.69;214294;1264;61228;-73
2023/01/28 20:29:25;;;;;;;8.60;6.80;;;;;;;-0.22;83.93;101458.46;214324;1262;61373;-73
2023/01/28 20:34:20;;;;;;;12.70;8.70;;;;;;;-0.23;84.08;101455.70;214373;1263;61261;-72
2023/01/28 20:39:13;;;;;;;10.90;8.00;;;;;;;-0.23;84.09;101454.14;214420;1264;73592;-72
2023/01/28 20:44:06;;;;;;;11.40;8.80;;;;;;;-0.24;83.86;101459.23;214451;1264;69891;-72
2023/01/28 20:49:01;;;;;;;12.40;8.00;;;;;;;-0.23;83.85;101468.29;214391;1265;61395;-72
2023/01/28 20:53:55;;;;;;;12.90;8.20;;;;;;;-0.23;83.61;101473.05;214328;1264;61590;-72
2023/01/28 20:58:53;;;;;;;14.50;8.80;;;;;;;-0.25;83.58;101472.60;214390;1264;75453;-72
2023/01/28 21:03:47;;;;;;;12.50;6.80;;;;;;;-0.27;82.97;101477.35;214475;1262;70830;-73
2023/01/28 21:08:40;;;;;;;8.80;6.60;;;;;;;-0.32;82.06;101490.95;214522;1263;61289;-72
2023/01/28 21:13:33;;;;;;;10.00;7.00;;;;;;;-0.35;81.54;101491.95;214190;1262;61405;-73
2023/01/28 21:18:26;;;;;;;7.60;6.70;;;;;;;-0.37;81.50;101497.27;214360;1264;61158;-73
2023/01/28 21:23:19;;;;;;;9.80;7.20;;;;;;;-0.38;81.27;101490.39;214469;1264;73235;-73
2023/01/28 21:28:16;;;;;;;16.20;11.40;;;;;;;-0.38;81.29;101489.02;214384;1264;61324;-73
2023/01/28 21:33:10;;;;;;;9.30;6.80;;;;;;;-0.40;80.92;101484.29;214506;1264;61286;-74
2023/01/28 21:38:02;;;;;;;11.00;6.50;;;;;;;-0.40;80.82;101484.44;214341;1264;65763;-73
2023/01/28 21:42:56;;;;;;;8.50;7.10;;;;;;;-0.41;81.04;101473.88;214306;1264;61288;-73
2023/01/28 21:47:48;;;;;;;9.90;7.50;;;;;;;-0.40;80.88;101466.90;214136;1264;61272;-74
2023/01/28 21:52:41;;;;;;;15.90;8.60;;;;;;;-0.42;80.63;101469.14;214292;1264;61430;-73
2023/01/28 21:57:34;;;;;;;11.90;6.90;;;;;;;-0.45;80.59;101468.10;214305;1266;61266;-74
2023/01/28 22:02:27;;;;;;;9.80;6.00;;;;;;;-0.47;80.46;101459.58;214378;1264;61228;-73
2023/01/28 22:07:20;;;;;;;7.30;5.90;;;;;;;-0.48;80.13;101455.77;214320;1264;61290;-74
2023/01/28 22:12:14;;;;;;;8.00;5.90;;;;;;;-0.52;79.89;101462.77;214224;1264;61385;-73
2023/01/28 22:17:10;;;;;;;6.20;5.30;;;;;;;-0.56;79.81;101450.56;214531;1262;71690;-73
2023/01/28 22:22:04;;;;;;;6.60;5.90;;;;;;;-0.55;79.82;101438.86;214275;1264;61255;-73
2023/01/28 22:26:57;;;;;;;8.60;5.20;;;;;;;-0.59;79.16;101427.06;214175;1264;66622;-73
2023/01/28 22:31:52;;;;;;;7.00;5.80;;;;;;;-0.59;79.49;101421.21;214347;1262;61243;-73
2023/01/28 22:36:46;;;;;;;7.10;5.40;;;;;;;-0.58;79.32;101417.41;214451;1264;75247;-73
2023/01/28 22:41:40;;;;;;;10.90;6.70;;;;;;;-0.59;78.98;101426.48;214448;1264;72465;-73
2023/01/28 22:46:34;;;;;;;11.30;6.70;;;;;;;-0.60;79.17;101423.22;214332;1264;61252;-73
2023/01/28 22:51:33;;;;;;;8.90;6.20;;;;;;;-0.59;79.26;101434.70;214473;1264;64856;-73
2023/01/28 22:56:28;;;;;;;8.70;6.60;;;;;;;-0.59;79.19;101439.11;214400;1263;61157;-73
2023/01/28 23:01:21;;;;;;;8.80;6.30;;;;;;;-0.59;79.23;101445.58;214468;1264;73107;-73